createdAt,value
2022-11-28T00:02:21.217Z,7.39
2022-11-28T00:07:23.370Z,7.58
2022-11-28T00:12:26.299Z,7.42
2022-11-28T00:17:28.181Z,6.27
2022-11-28T00:22:30.065Z,7.18
2022-11-28T00:27:34.596Z,6.21
2022-11-28T00:32:37.032Z,7.19
2022-11-28T00:37:38.952Z,6.81
2022-11-28T00:42:40.855Z,6.19
2022-11-28T00:47:42.787Z,6.25
2022-11-28T00:52:44.750Z,7.07
2022-11-28T00:57:46.768Z,6.97
2022-11-28T01:02:48.864Z,7.12
2022-11-28T01:07:51.411Z,6.93
2022-11-28T01:12:53.295Z,7.00
2022-11-28T01:17:55.211Z,6.77
2022-11-28T01:22:57.127Z,6.99
2022-11-28T01:27:59.035Z,6.24
2022-11-28T01:33:00.937Z,7.00
2022-11-28T01:38:02.830Z,6.39
2022-11-28T01:43:04.730Z,5.99
2022-11-28T01:48:09.505Z,6.17
2022-11-28T01:53:12.516Z,6.57
2022-11-28T01:58:14.962Z,6.52
2022-11-28T02:03:29.916Z,5.65
2022-11-28T02:08:34.983Z,6.49
2022-11-28T02:13:55.484Z,6.35
2022-11-28T02:19:27.939Z,5.69
2022-11-28T02:24:45.083Z,6.60
2022-11-28T02:30:12.876Z,6.53
2022-11-28T02:35:14.774Z,6.30
2022-11-28T02:40:25.195Z,6.04
2022-11-28T02:45:58.835Z,5.77
2022-11-28T02:51:16.960Z,5.76
2022-11-28T02:56:19.053Z,5.40
2022-11-28T03:01:34.397Z,6.02
2022-11-28T03:06:58.406Z,5.82
2022-11-28T03:12:14.410Z,6.30
2022-11-28T03:17:52.276Z,6.59
2022-11-28T03:23:30.460Z,6.24
2022-11-28T03:28:40.682Z,6.06
2022-11-28T03:33:51.875Z,5.85
2022-11-28T03:39:08.510Z,6.42
2022-11-28T03:44:20.433Z,6.37
2022-11-28T03:49:46.222Z,6.78
2022-11-28T03:54:57.106Z,6.82
2022-11-28T04:00:04.164Z,6.56
2022-11-28T04:05:24.953Z,6.98
2022-11-28T04:10:51.056Z,7.24
2022-11-28T04:16:37.288Z,6.80
2022-11-28T04:22:04.087Z,6.70
2022-11-28T04:27:10.649Z,7.14
2022-11-28T04:32:15.264Z,6.72
2022-11-28T04:37:19.852Z,5.93
2022-11-28T04:42:26.463Z,6.06
2022-11-28T04:47:29.243Z,6.29
2022-11-28T04:52:41.757Z,5.75
2022-11-28T04:57:51.695Z,6.44
2022-11-28T05:02:56.908Z,5.96
2022-11-28T05:08:02.145Z,6.32
2022-11-28T05:13:04.575Z,6.19
2022-11-28T05:18:06.984Z,6.66
2022-11-28T05:23:09.318Z,6.57
2022-11-28T05:28:11.314Z,6.72
2022-11-28T05:33:17.644Z,6.57
2022-11-28T05:38:19.872Z,6.19
2022-11-28T05:43:21.945Z,5.01
2022-11-28T05:48:24.444Z,6.27
2022-11-28T05:53:26.652Z,4.52
2022-11-28T05:58:28.620Z,5.78
2022-11-28T06:03:30.570Z,6.63
2022-11-28T06:08:32.540Z,6.93
2022-11-28T06:13:34.530Z,6.91
2022-11-28T06:18:36.998Z,6.88
2022-11-28T06:23:40.800Z,7.43
2022-11-28T06:28:43.473Z,7.16
2022-11-28T06:33:46.004Z,7.62
2022-11-28T06:38:48.807Z,7.72
2022-11-28T06:43:50.964Z,7.48
2022-11-28T06:48:53.647Z,7.74
2022-11-28T06:53:55.757Z,7.88
2022-11-28T06:58:59.669Z,7.45
2022-11-28T07:04:02.176Z,8.00
2022-11-28T07:09:04.506Z,7.48
2022-11-28T07:14:06.531Z,6.97
2022-11-28T07:19:08.561Z,7.37
2022-11-28T07:24:10.454Z,7.03
2022-11-28T07:29:17.469Z,7.40
2022-11-28T07:34:19.398Z,8.03
2022-11-28T07:39:21.419Z,7.84
2022-11-28T07:44:23.307Z,7.84
2022-11-28T07:49:25.187Z,7.52
2022-11-28T07:54:27.120Z,7.97
2022-11-28T07:59:29.046Z,7.40
2022-11-28T08:04:31.074Z,6.95
2022-11-28T08:09:33.323Z,7.28
2022-11-28T08:14:35.279Z,7.16
2022-11-28T08:19:37.417Z,7.32
2022-11-28T08:24:39.365Z,7.90
2022-11-28T08:29:41.562Z,8.21
2022-11-28T08:34:43.654Z,7.94
2022-11-28T08:39:45.675Z,8.13
2022-11-28T08:44:47.664Z,8.44
2022-11-28T08:49:49.654Z,8.44
2022-11-28T08:54:51.868Z,7.88
2022-11-28T08:59:53.786Z,8.95
2022-11-28T09:04:55.709Z,9.08
2022-11-28T09:09:57.690Z,9.13
2022-11-28T09:14:59.613Z,9.55
2022-11-28T09:20:01.702Z,9.94
2022-11-28T09:25:04.076Z,9.81
2022-11-28T09:30:08.294Z,9.62
2022-11-28T09:35:10.369Z,8.04
2022-11-28T09:40:17.542Z,7.52
2022-11-28T09:45:23.339Z,8.71
2022-11-28T09:50:30.651Z,9.71
2022-11-28T09:56:02.224Z,9.28
2022-11-28T10:01:22.908Z,10.33
2022-11-28T10:06:45.280Z,10.23
2022-11-28T10:12:03.983Z,10.56
2022-11-28T10:17:21.116Z,10.23
2022-11-28T10:22:44.637Z,10.50
2022-11-28T10:27:47.962Z,10.82
2022-11-28T10:33:12.302Z,10.97
2022-11-28T10:38:16.811Z,9.71
2022-11-28T10:43:54.284Z,6.65
2022-11-28T10:49:01.394Z,5.74
2022-11-28T10:54:39.338Z,5.12
2022-11-28T11:00:03.339Z,4.33
2022-11-28T11:05:08.002Z,6.34
2022-11-28T11:10:17.305Z,4.65
2022-11-28T11:15:30.090Z,5.13
2022-11-28T11:20:39.647Z,4.55
2022-11-28T11:25:58.319Z,5.29
2022-11-28T11:31:07.083Z,6.96
2022-11-28T11:36:33.263Z,5.90
2022-11-28T11:41:35.279Z,6.06
2022-11-28T11:47:03.553Z,6.80
2022-11-28T11:52:21.107Z,6.20
2022-11-28T11:57:33.954Z,6.93
2022-11-28T12:02:38.562Z,6.71
2022-11-28T12:07:55.253Z,5.77
2022-11-28T12:12:57.403Z,5.39
2022-11-28T12:18:07.042Z,6.49
2022-11-28T12:23:46.562Z,7.48
2022-11-28T12:29:22.711Z,8.46
2022-11-28T12:34:30.570Z,7.81
2022-11-28T12:39:53.877Z,7.03
2022-11-28T12:45:15.996Z,7.50
2022-11-28T12:50:36.887Z,8.49
2022-11-28T12:56:07.888Z,8.53
2022-11-28T13:01:39.319Z,8.13
2022-11-28T13:06:48.790Z,7.97
2022-11-28T13:12:11.994Z,8.12
2022-11-28T13:17:42.828Z,7.63
2022-11-28T13:22:53.485Z,8.07
2022-11-28T13:28:04.236Z,6.05
2022-11-28T13:33:33.201Z,7.74
2022-11-28T13:39:11.364Z,8.62
2022-11-28T13:44:19.485Z,8.78
2022-11-28T13:49:27.499Z,8.85
2022-11-28T13:54:32.512Z,9.18
2022-11-28T13:59:35.766Z,9.20
2022-11-28T14:04:44.455Z,8.69
2022-11-28T14:10:16.905Z,8.84
2022-11-28T14:15:32.143Z,9.09
2022-11-28T14:20:51.764Z,8.20
2022-11-28T14:25:54.997Z,8.44
2022-11-28T14:31:26.183Z,8.34
2022-11-28T14:36:31.534Z,8.68
2022-11-28T14:42:05.348Z,8.56
2022-11-28T14:47:16.280Z,8.62
2022-11-28T14:52:40.910Z,9.01
2022-11-28T14:57:44.545Z,8.98
2022-11-28T15:02:52.760Z,9.07
2022-11-28T15:08:02.802Z,9.55
2022-11-28T15:13:35.078Z,9.63
2022-11-28T15:18:41.896Z,9.53
2022-11-28T15:23:44.693Z,8.09
2022-11-28T15:28:47.046Z,7.33
2022-11-28T15:33:50.521Z,5.66
2022-11-28T15:38:54.603Z,6.60
2022-11-28T15:43:57.706Z,5.81
2022-11-28T15:49:01.564Z,6.21
2022-11-28T15:54:30.134Z,6.56
2022-11-28T15:59:32.623Z,4.49
2022-11-28T16:04:34.923Z,4.11
2022-11-28T16:09:38.597Z,4.63
2022-11-28T16:14:44.934Z,6.47
2022-11-28T16:19:51.407Z,7.10
2022-11-28T16:25:00.129Z,6.49
2022-11-28T16:30:26.621Z,7.61
2022-11-28T16:35:39.026Z,7.93
2022-11-28T16:40:41.973Z,7.33
2022-11-28T16:45:44.049Z,7.13
2022-11-28T16:51:15.422Z,7.15
2022-11-28T16:56:29.344Z,7.41
2022-11-28T17:01:31.550Z,7.75
2022-11-28T17:06:37.746Z,7.62
2022-11-28T17:11:47.456Z,6.85
2022-11-28T17:16:49.490Z,7.39
2022-11-28T17:21:54.839Z,7.48
2022-11-28T17:26:56.838Z,7.82
2022-11-28T17:31:59.505Z,7.52
2022-11-28T17:37:02.961Z,7.87
2022-11-28T17:42:06.112Z,7.46
2022-11-28T17:47:08.117Z,7.57
2022-11-28T17:52:10.085Z,7.35
2022-11-28T17:57:12.146Z,7.42
2022-11-28T18:02:14.289Z,7.24
2022-11-28T18:07:16.308Z,7.25
2022-11-28T18:12:18.271Z,7.63
2022-11-28T18:17:20.325Z,6.86
2022-11-28T18:22:22.800Z,6.99
2022-11-28T18:27:24.917Z,7.08
2022-11-28T18:32:26.928Z,7.40
2022-11-28T18:37:30.268Z,6.78
2022-11-28T18:42:32.564Z,7.21
2022-11-28T18:47:35.781Z,7.09
2022-11-28T18:52:38.391Z,7.27
2022-11-28T18:57:41.426Z,7.35
2022-11-28T19:02:43.447Z,7.33
2022-11-28T19:07:45.680Z,6.74
2022-11-28T19:12:47.859Z,6.96
2022-11-28T19:17:49.815Z,7.35
2022-11-28T19:22:52.524Z,7.21
2022-11-28T19:27:54.793Z,7.65
2022-11-28T19:32:58.492Z,7.66
2022-11-28T19:38:00.555Z,7.68
2022-11-28T19:43:04.860Z,7.05
2022-11-28T19:48:07.672Z,6.85
2022-11-28T19:53:09.700Z,6.78
2022-11-28T19:58:12.370Z,7.25
2022-11-28T20:03:15.736Z,7.22
2022-11-28T20:08:17.772Z,7.14
2022-11-28T20:13:20.034Z,6.46
2022-11-28T20:18:22.233Z,6.25
2022-11-28T20:23:24.246Z,6.66
2022-11-28T20:28:26.532Z,6.34
2022-11-28T20:33:29.540Z,6.37
2022-11-28T20:38:31.612Z,6.71
2022-11-28T20:43:36.699Z,6.92
2022-11-28T20:48:39.772Z,7.37
2022-11-28T20:53:41.792Z,6.87
2022-11-28T20:58:44.356Z,7.58
2022-11-28T21:03:47.071Z,6.31
2022-11-28T21:08:49.093Z,6.79
2022-11-28T21:13:51.040Z,7.34
2022-11-28T21:18:53.401Z,7.25
2022-11-28T21:24:04.283Z,7.29
2022-11-28T21:29:07.065Z,7.46
2022-11-28T21:34:14.322Z,7.13
2022-11-28T21:39:20.040Z,7.51
2022-11-28T21:44:22.286Z,7.65
2022-11-28T21:49:24.542Z,7.78
2022-11-28T21:54:28.680Z,7.91
2022-11-28T21:59:31.875Z,7.41
2022-11-28T22:04:34.842Z,7.67
2022-11-28T22:09:36.974Z,7.89
2022-11-28T22:14:39.159Z,8.10
2022-11-28T22:19:41.604Z,7.65
2022-11-28T22:24:44.082Z,7.02
2022-11-28T22:29:46.451Z,7.46
2022-11-28T22:34:48.515Z,7.79
2022-11-28T22:39:51.775Z,7.34
2022-11-28T22:44:54.362Z,7.00
2022-11-28T22:49:56.805Z,7.00
2022-11-28T22:54:58.799Z,7.52
2022-11-28T23:00:00.768Z,7.76
2022-11-28T23:05:03.228Z,7.30
2022-11-28T23:10:05.742Z,7.51
2022-11-28T23:15:10.216Z,7.37
2022-11-28T23:20:12.733Z,7.28
2022-11-28T23:25:15.439Z,6.71
2022-11-28T23:30:18.298Z,7.56
2022-11-28T23:35:20.242Z,7.17
2022-11-28T23:40:22.379Z,7.78
2022-11-28T23:45:24.460Z,7.14
2022-11-28T23:50:27.238Z,7.38
2022-11-28T23:55:29.179Z,7.29
